sensor_id;sensor_type;location;lat;lon;timestamp;pressure;altitude;pressure_sealevel;temperature;humidity
55460;BME280;41326;45.302;-122.946;2023-03-14T00:00:28;100471.49;;;18.17;54.23
55460;BME280;41326;45.302;-122.946;2023-03-14T00:02:59;100462.38;;;18.28;53.99
55460;BME280;41326;45.302;-122.946;2023-03-14T00:05:29;100462.74;;;18.38;53.76
55460;BME280;41326;45.302;-122.946;2023-03-14T00:08:00;100466.96;;;18.43;53.70
55460;BME280;41326;45.302;-122.946;2023-03-14T00:10:30;100469.94;;;18.40;53.72
55460;BME280;41326;45.302;-122.946;2023-03-14T00:13:00;100482.80;;;18.35;53.86
55460;BME280;41326;45.302;-122.946;2023-03-14T00:15:32;100488.31;;;18.44;53.66
55460;BME280;41326;45.302;-122.946;2023-03-14T00:18:01;100493.22;;;18.50;53.65
55460;BME280;41326;45.302;-122.946;2023-03-14T00:20:31;100498.48;;;18.62;53.49
55460;BME280;41326;45.302;-122.946;2023-03-14T00:23:02;100492.57;;;18.68;53.29
55460;BME280;41326;45.302;-122.946;2023-03-14T00:25:35;100497.46;;;18.60;53.56
55460;BME280;41326;45.302;-122.946;2023-03-14T00:28:02;100499.99;;;18.57;53.67
55460;BME280;41326;45.302;-122.946;2023-03-14T00:30:32;100499.21;;;18.46;54.05
55460;BME280;41326;45.302;-122.946;2023-03-14T00:33:03;100499.67;;;18.40;54.15
55460;BME280;41326;45.302;-122.946;2023-03-14T00:35:33;100506.91;;;18.34;54.23
55460;BME280;41326;45.302;-122.946;2023-03-14T00:38:03;100503.51;;;18.39;54.16
55460;BME280;41326;45.302;-122.946;2023-03-14T00:40:33;100502.72;;;18.49;54.04
55460;BME280;41326;45.302;-122.946;2023-03-14T00:43:04;100505.64;;;18.57;54.00
55460;BME280;41326;45.302;-122.946;2023-03-14T00:45:34;100515.61;;;18.67;53.69
55460;BME280;41326;45.302;-122.946;2023-03-14T00:48:04;100517.38;;;18.61;53.79
55460;BME280;41326;45.302;-122.946;2023-03-14T00:50:35;100518.63;;;18.55;54.04
55460;BME280;41326;45.302;-122.946;2023-03-14T00:53:05;100517.86;;;18.51;54.84
55460;BME280;41326;45.302;-122.946;2023-03-14T00:55:37;100521.25;;;18.46;55.31
55460;BME280;41326;45.302;-122.946;2023-03-14T00:58:06;100519.10;;;18.45;55.55
55460;BME280;41326;45.302;-122.946;2023-03-14T01:00:36;100512.37;;;18.42;56.60
55460;BME280;41326;45.302;-122.946;2023-03-14T01:03:08;100509.75;;;18.38;58.03
55460;BME280;41326;45.302;-122.946;2023-03-14T01:05:37;100510.72;;;18.33;58.56
55460;BME280;41326;45.302;-122.946;2023-03-14T01:08:08;100512.27;;;18.33;58.41
55460;BME280;41326;45.302;-122.946;2023-03-14T01:10:38;100515.02;;;18.29;58.29
55460;BME280;41326;45.302;-122.946;2023-03-14T01:13:08;100515.32;;;18.31;57.57
55460;BME280;41326;45.302;-122.946;2023-03-14T01:15:39;100512.48;;;18.41;56.92
55460;BME280;41326;45.302;-122.946;2023-03-14T01:18:09;100512.98;;;18.54;56.23
55460;BME280;41326;45.302;-122.946;2023-03-14T01:20:39;100511.43;;;18.64;55.57
55460;BME280;41326;45.302;-122.946;2023-03-14T01:23:10;100516.63;;;18.67;55.77
55460;BME280;41326;45.302;-122.946;2023-03-14T01:25:41;100517.80;;;18.61;56.22
55460;BME280;41326;45.302;-122.946;2023-03-14T01:28:10;100521.76;;;18.56;56.87
55460;BME280;41326;45.302;-122.946;2023-03-14T01:30:41;100525.37;;;18.53;57.79
55460;BME280;41326;45.302;-122.946;2023-03-14T01:33:11;100526.27;;;18.55;57.63
55460;BME280;41326;45.302;-122.946;2023-03-14T01:35:41;100528.19;;;18.66;57.48
55460;BME280;41326;45.302;-122.946;2023-03-14T01:38:12;100533.49;;;18.74;57.09
55460;BME280;41326;45.302;-122.946;2023-03-14T01:40:47;100531.98;;;18.72;57.53
55460;BME280;41326;45.302;-122.946;2023-03-14T01:43:18;100533.24;;;18.76;57.81
55460;BME280;41326;45.302;-122.946;2023-03-14T01:48:13;100543.91;;;18.71;59.57
55460;BME280;41326;45.302;-122.946;2023-03-14T01:50:44;100545.87;;;18.67;57.60
55460;BME280;41326;45.302;-122.946;2023-03-14T01:53:15;100546.19;;;18.48;58.21
55460;BME280;41326;45.302;-122.946;2023-03-14T01:55:46;100547.89;;;18.41;56.91
55460;BME280;41326;45.302;-122.946;2023-03-14T01:58:15;100548.02;;;18.48;56.43
55460;BME280;41326;45.302;-122.946;2023-03-14T02:00:45;100545.91;;;18.60;56.62
55460;BME280;41326;45.302;-122.946;2023-03-14T02:03:16;100544.66;;;18.72;56.48
55460;BME280;41326;45.302;-122.946;2023-03-14T02:05:48;100546.22;;;18.74;56.94
55460;BME280;41326;45.302;-122.946;2023-03-14T02:08:18;100546.29;;;18.73;57.43
55460;BME280;41326;45.302;-122.946;2023-03-14T02:10:48;100548.20;;;18.68;57.62
55460;BME280;41326;45.302;-122.946;2023-03-14T02:13:17;100554.68;;;18.64;57.58
55460;BME280;41326;45.302;-122.946;2023-03-14T02:15:47;100550.81;;;18.61;57.59
55460;BME280;41326;45.302;-122.946;2023-03-14T02:18:18;100551.86;;;18.59;57.36
55460;BME280;41326;45.302;-122.946;2023-03-14T02:20:52;100546.60;;;18.54;57.27
55460;BME280;41326;45.302;-122.946;2023-03-14T02:23:23;100547.89;;;18.57;57.06
55460;BME280;41326;45.302;-122.946;2023-03-14T02:25:53;100551.73;;;18.52;57.01
55460;BME280;41326;45.302;-122.946;2023-03-14T02:28:19;100560.02;;;18.47;57.28
55460;BME280;41326;45.302;-122.946;2023-03-14T02:30:49;100564.76;;;18.46;57.11
55460;BME280;41326;45.302;-122.946;2023-03-14T02:33:20;100568.13;;;18.41;57.32
55460;BME280;41326;45.302;-122.946;2023-03-14T02:35:53;100573.15;;;18.41;57.18
55460;BME280;41326;45.302;-122.946;2023-03-14T02:38:24;100579.25;;;18.40;57.27
55460;BME280;41326;45.302;-122.946;2023-03-14T02:40:51;100580.32;;;18.39;57.13
55460;BME280;41326;45.302;-122.946;2023-03-14T02:43:21;100584.69;;;18.37;57.35
55460;BME280;41326;45.302;-122.946;2023-03-14T02:45:52;100592.21;;;18.33;57.50
55460;BME280;41326;45.302;-122.946;2023-03-14T02:48:25;100598.56;;;18.28;57.62
55460;BME280;41326;45.302;-122.946;2023-03-14T02:50:53;100602.97;;;18.24;57.63
55460;BME280;41326;45.302;-122.946;2023-03-14T02:53:24;100610.55;;;18.19;57.78
55460;BME280;41326;45.302;-122.946;2023-03-14T02:55:54;100611.97;;;18.18;57.70
55460;BME280;41326;45.302;-122.946;2023-03-14T02:58:24;100615.10;;;18.18;57.55
55460;BME280;41326;45.302;-122.946;2023-03-14T03:00:53;100616.30;;;18.16;57.42
55460;BME280;41326;45.302;-122.946;2023-03-14T03:03:23;100624.15;;;18.12;57.42
55460;BME280;41326;45.302;-122.946;2023-03-14T03:05:55;100629.26;;;18.20;56.99
55460;BME280;41326;45.302;-122.946;2023-03-14T03:08:25;100634.26;;;18.33;56.66
55460;BME280;41326;45.302;-122.946;2023-03-14T03:10:56;100636.90;;;18.46;56.22
55460;BME280;41326;45.302;-122.946;2023-03-14T03:13:25;100639.92;;;18.53;56.14
55460;BME280;41326;45.302;-122.946;2023-03-14T03:15:55;100647.19;;;18.54;55.92
55460;BME280;41326;45.302;-122.946;2023-03-14T03:18:25;100654.07;;;18.55;55.81
55460;BME280;41326;45.302;-122.946;2023-03-14T03:20:56;100657.57;;;18.54;55.79
55460;BME280;41326;45.302;-122.946;2023-03-14T03:23:26;100657.97;;;18.50;55.90
55460;BME280;41326;45.302;-122.946;2023-03-14T03:25:57;100660.54;;;18.45;56.03
55460;BME280;41326;45.302;-122.946;2023-03-14T03:28:27;100664.05;;;18.42;56.12
55460;BME280;41326;45.302;-122.946;2023-03-14T03:30:57;100667.58;;;18.37;56.26
55460;BME280;41326;45.302;-122.946;2023-03-14T03:33:28;100673.98;;;18.33;56.35
55460;BME280;41326;45.302;-122.946;2023-03-14T03:35:58;100676.86;;;18.28;56.44
55460;BME280;41326;45.302;-122.946;2023-03-14T03:38:29;100678.60;;;18.25;56.31
55460;BME280;41326;45.302;-122.946;2023-03-14T03:41:02;100679.92;;;18.22;56.41
55460;BME280;41326;45.302;-122.946;2023-03-14T03:43:30;100682.30;;;18.29;55.95
55460;BME280;41326;45.302;-122.946;2023-03-14T03:46:02;100691.20;;;18.37;55.83
55460;BME280;41326;45.302;-122.946;2023-03-14T03:48:30;100698.31;;;18.49;55.53
55460;BME280;41326;45.302;-122.946;2023-03-14T03:51:00;100697.71;;;18.50;55.66
55460;BME280;41326;45.302;-122.946;2023-03-14T03:53:31;100699.16;;;18.54;55.46
55460;BME280;41326;45.302;-122.946;2023-03-14T03:56:02;100708.26;;;18.44;55.77
55460;BME280;41326;45.302;-122.946;2023-03-14T03:58:32;100712.46;;;18.43;55.68
55460;BME280;41326;45.302;-122.946;2023-03-14T04:01:02;100712.00;;;18.41;55.83
55460;BME280;41326;45.302;-122.946;2023-03-14T04:03:33;100712.18;;;18.40;55.84
55460;BME280;41326;45.302;-122.946;2023-03-14T04:06:06;100713.82;;;18.35;55.91
55460;BME280;41326;45.302;-122.946;2023-03-14T04:08:34;100712.78;;;18.33;55.99
55460;BME280;41326;45.302;-122.946;2023-03-14T04:11:05;100716.43;;;18.28;56.23
55460;BME280;41326;45.302;-122.946;2023-03-14T04:13:35;100725.03;;;18.24;56.31
55460;BME280;41326;45.302;-122.946;2023-03-14T04:16:10;100726.49;;;18.21;56.34
55460;BME280;41326;45.302;-122.946;2023-03-14T04:18:36;100731.69;;;18.16;56.30
55460;BME280;41326;45.302;-122.946;2023-03-14T04:21:06;100739.01;;;18.16;56.29
55460;BME280;41326;45.302;-122.946;2023-03-14T04:23:36;100742.39;;;18.13;56.29
55460;BME280;41326;45.302;-122.946;2023-03-14T04:26:07;100743.91;;;18.10;56.37
55460;BME280;41326;45.302;-122.946;2023-03-14T04:28:37;100747.66;;;18.08;56.39
55460;BME280;41326;45.302;-122.946;2023-03-14T04:31:14;100748.05;;;18.03;56.51
55460;BME280;41326;45.302;-122.946;2023-03-14T04:33:37;100747.91;;;17.99;56.52
55460;BME280;41326;45.302;-122.946;2023-03-14T04:36:08;100753.31;;;17.98;56.55
55460;BME280;41326;45.302;-122.946;2023-03-14T04:38:38;100758.08;;;17.95;56.42
55460;BME280;41326;45.302;-122.946;2023-03-14T04:41:09;100762.84;;;17.94;56.51
55460;BME280;41326;45.302;-122.946;2023-03-14T04:43:39;100760.76;;;17.94;56.53
55460;BME280;41326;45.302;-122.946;2023-03-14T04:46:10;100760.41;;;17.90;56.58
55460;BME280;41326;45.302;-122.946;2023-03-14T04:48:40;100767.42;;;17.87;56.72
55460;BME280;41326;45.302;-122.946;2023-03-14T04:51:11;100769.75;;;17.85;56.69
55460;BME280;41326;45.302;-122.946;2023-03-14T04:53:41;100778.90;;;17.83;56.77
55460;BME280;41326;45.302;-122.946;2023-03-14T04:56:12;100781.46;;;17.81;56.80
55460;BME280;41326;45.302;-122.946;2023-03-14T04:58:42;100784.11;;;17.78;56.68
55460;BME280;41326;45.302;-122.946;2023-03-14T05:01:12;100787.48;;;17.80;56.51
55460;BME280;41326;45.302;-122.946;2023-03-14T05:03:42;100790.42;;;17.76;56.60
55460;BME280;41326;45.302;-122.946;2023-03-14T05:06:12;100792.73;;;17.74;56.64
55460;BME280;41326;45.302;-122.946;2023-03-14T05:08:43;100796.26;;;17.72;56.63
55460;BME280;41326;45.302;-122.946;2023-03-14T05:11:16;100797.87;;;17.71;56.52
55460;BME280;41326;45.302;-122.946;2023-03-14T05:13:43;100802.07;;;17.65;56.78
55460;BME280;41326;45.302;-122.946;2023-03-14T05:16:15;100803.88;;;17.64;56.69
55460;BME280;41326;45.302;-122.946;2023-03-14T05:18:43;100802.82;;;17.62;56.59
55460;BME280;41326;45.302;-122.946;2023-03-14T05:21:14;100805.46;;;17.63;56.42
55460;BME280;41326;45.302;-122.946;2023-03-14T05:23:44;100809.39;;;17.61;56.53
55460;BME280;41326;45.302;-122.946;2023-03-14T05:26:14;100810.01;;;17.56;56.66
55460;BME280;41326;45.302;-122.946;2023-03-14T05:28:45;100812.64;;;17.57;56.57
55460;BME280;41326;45.302;-122.946;2023-03-14T05:31:15;100812.88;;;17.50;56.75
55460;BME280;41326;45.302;-122.946;2023-03-14T05:33:45;100816.21;;;17.48;56.81
55460;BME280;41326;45.302;-122.946;2023-03-14T05:36:15;100824.11;;;17.46;56.83
55460;BME280;41326;45.302;-122.946;2023-03-14T05:38:46;100821.53;;;17.44;56.72
55460;BME280;41326;45.302;-122.946;2023-03-14T05:41:16;100818.46;;;17.44;56.58
55460;BME280;41326;45.302;-122.946;2023-03-14T05:43:47;100816.75;;;17.42;56.61
55460;BME280;41326;45.302;-122.946;2023-03-14T05:46:16;100817.42;;;17.36;56.84
55460;BME280;41326;45.302;-122.946;2023-03-14T05:48:47;100814.70;;;17.37;56.76
55460;BME280;41326;45.302;-122.946;2023-03-14T05:51:18;100815.78;;;17.34;56.68
55460;BME280;41326;45.302;-122.946;2023-03-14T05:53:48;100814.37;;;17.34;56.58
55460;BME280;41326;45.302;-122.946;2023-03-14T05:56:19;100816.55;;;17.30;56.71
55460;BME280;41326;45.302;-122.946;2023-03-14T05:58:48;100819.53;;;17.31;56.59
55460;BME280;41326;45.302;-122.946;2023-03-14T06:01:19;100820.13;;;17.31;56.42
55460;BME280;41326;45.302;-122.946;2023-03-14T06:03:49;100819.22;;;17.29;56.49
55460;BME280;41326;45.302;-122.946;2023-03-14T06:06:20;100818.91;;;17.25;56.70
55460;BME280;41326;45.302;-122.946;2023-03-14T06:08:53;100821.90;;;17.23;56.79
55460;BME280;41326;45.302;-122.946;2023-03-14T06:11:20;100820.99;;;17.20;56.91
55460;BME280;41326;45.302;-122.946;2023-03-14T06:13:51;100820.25;;;17.20;56.84
55460;BME280;41326;45.302;-122.946;2023-03-14T06:16:21;100825.66;;;17.20;56.84
55460;BME280;41326;45.302;-122.946;2023-03-14T06:18:51;100827.95;;;17.18;56.78
55460;BME280;41326;45.302;-122.946;2023-03-14T06:21:22;100831.11;;;17.14;56.89
55460;BME280;41326;45.302;-122.946;2023-03-14T06:23:52;100832.33;;;17.13;56.89
55460;BME280;41326;45.302;-122.946;2023-03-14T06:26:23;100836.10;;;17.10;57.00
55460;BME280;41326;45.302;-122.946;2023-03-14T06:28:53;100832.43;;;17.11;56.96
55460;BME280;41326;45.302;-122.946;2023-03-14T06:31:24;100829.40;;;17.11;56.90
55460;BME280;41326;45.302;-122.946;2023-03-14T06:33:54;100832.41;;;17.04;57.03
55460;BME280;41326;45.302;-122.946;2023-03-14T06:36:25;100834.60;;;17.03;57.00
55460;BME280;41326;45.302;-122.946;2023-03-14T06:38:55;100839.33;;;16.99;57.04
55460;BME280;41326;45.302;-122.946;2023-03-14T06:41:25;100841.31;;;17.00;57.04
55460;BME280;41326;45.302;-122.946;2023-03-14T06:43:55;100843.86;;;16.99;57.14
55460;BME280;41326;45.302;-122.946;2023-03-14T06:46:25;100848.72;;;16.96;57.20
55460;BME280;41326;45.302;-122.946;2023-03-14T06:48:56;100855.65;;;16.94;57.23
55460;BME280;41326;45.302;-122.946;2023-03-14T06:51:26;100860.02;;;16.93;57.23
55460;BME280;41326;45.302;-122.946;2023-03-14T06:53:56;100855.89;;;16.93;57.14
55460;BME280;41326;45.302;-122.946;2023-03-14T06:56:27;100851.85;;;16.93;57.12
55460;BME280;41326;45.302;-122.946;2023-03-14T06:58:57;100852.10;;;16.89;57.22
55460;BME280;41326;45.302;-122.946;2023-03-14T07:01:30;100853.11;;;16.88;57.27
55460;BME280;41326;45.302;-122.946;2023-03-14T07:03:57;100857.08;;;16.92;57.40
55460;BME280;41326;45.302;-122.946;2023-03-14T07:06:28;100853.81;;;16.89;57.51
55460;BME280;41326;45.302;-122.946;2023-03-14T07:08:58;100860.00;;;16.87;57.60
55460;BME280;41326;45.302;-122.946;2023-03-14T07:12:35;100859.18;;;16.88;57.53
55460;BME280;41326;45.302;-122.946;2023-03-14T07:15:06;100860.07;;;16.88;57.48
55460;BME280;41326;45.302;-122.946;2023-03-14T07:17:36;100861.84;;;16.83;57.55
55460;BME280;41326;45.302;-122.946;2023-03-14T07:20:07;100863.84;;;16.85;57.48
55460;BME280;41326;45.302;-122.946;2023-03-14T07:22:36;100866.37;;;16.77;57.83
55460;BME280;41326;45.302;-122.946;2023-03-14T07:25:07;100862.52;;;16.77;57.87
55460;BME280;41326;45.302;-122.946;2023-03-14T07:27:38;100859.18;;;16.76;57.80
55460;BME280;41326;45.302;-122.946;2023-03-14T07:30:08;100858.50;;;16.74;57.86
55460;BME280;41326;45.302;-122.946;2023-03-14T07:32:39;100856.66;;;16.71;57.87
55460;BME280;41326;45.302;-122.946;2023-03-14T07:35:09;100855.84;;;16.67;57.92
55460;BME280;41326;45.302;-122.946;2023-03-14T07:37:39;100855.39;;;16.67;58.18
55460;BME280;41326;45.302;-122.946;2023-03-14T07:40:11;100851.82;;;16.66;58.21
55460;BME280;41326;45.302;-122.946;2023-03-14T07:42:41;100849.38;;;16.64;58.28
55460;BME280;41326;45.302;-122.946;2023-03-14T07:45:11;100845.18;;;16.65;58.28
55460;BME280;41326;45.302;-122.946;2023-03-14T07:47:41;100847.31;;;16.63;58.20
55460;BME280;41326;45.302;-122.946;2023-03-14T07:50:12;100846.84;;;16.62;58.13
55460;BME280;41326;45.302;-122.946;2023-03-14T07:52:47;100838.72;;;16.62;58.10
55460;BME280;41326;45.302;-122.946;2023-03-14T07:55:17;100835.51;;;16.60;58.20
55460;BME280;41326;45.302;-122.946;2023-03-14T07:57:48;100830.81;;;16.59;58.21
55460;BME280;41326;45.302;-122.946;2023-03-14T08:00:18;100832.84;;;16.59;58.24
55460;BME280;41326;45.302;-122.946;2023-03-14T08:02:48;100837.03;;;16.57;58.42
55460;BME280;41326;45.302;-122.946;2023-03-14T08:05:18;100840.41;;;16.56;58.54
55460;BME280;41326;45.302;-122.946;2023-03-14T08:07:49;100846.55;;;16.53;58.61
55460;BME280;41326;45.302;-122.946;2023-03-14T08:10:19;100844.89;;;16.51;58.65
55460;BME280;41326;45.302;-122.946;2023-03-14T08:12:54;100841.80;;;16.53;58.67
55460;BME280;41326;45.302;-122.946;2023-03-14T08:15:20;100842.24;;;16.51;58.77
55460;BME280;41326;45.302;-122.946;2023-03-14T08:17:50;100840.89;;;16.47;58.80
55460;BME280;41326;45.302;-122.946;2023-03-14T08:20:21;100840.43;;;16.46;58.85
55460;BME280;41326;45.302;-122.946;2023-03-14T08:22:51;100841.91;;;16.55;58.70
55460;BME280;41326;45.302;-122.946;2023-03-14T08:25:21;100838.04;;;16.58;58.55
55460;BME280;41326;45.302;-122.946;2023-03-14T08:27:52;100835.75;;;16.61;58.34
55460;BME280;41326;45.302;-122.946;2023-03-14T08:30:22;100838.91;;;16.61;58.38
55460;BME280;41326;45.302;-122.946;2023-03-14T08:32:52;100844.09;;;16.62;58.26
55460;BME280;41326;45.302;-122.946;2023-03-14T08:35:23;100848.95;;;16.60;58.33
55460;BME280;41326;45.302;-122.946;2023-03-14T08:37:53;100852.08;;;16.61;58.19
55460;BME280;41326;45.302;-122.946;2023-03-14T08:40:23;100854.38;;;16.61;58.14
55460;BME280;41326;45.302;-122.946;2023-03-14T08:42:53;100852.68;;;16.59;58.23
55460;BME280;41326;45.302;-122.946;2023-03-14T08:45:24;100855.50;;;16.56;58.36
55460;BME280;41326;45.302;-122.946;2023-03-14T08:47:54;100859.03;;;16.56;58.31
55460;BME280;41326;45.302;-122.946;2023-03-14T08:50:25;100861.92;;;16.58;58.34
55460;BME280;41326;45.302;-122.946;2023-03-14T08:52:55;100864.10;;;16.59;58.28
55460;BME280;41326;45.302;-122.946;2023-03-14T08:55:26;100863.99;;;16.56;58.32
55460;BME280;41326;45.302;-122.946;2023-03-14T08:57:56;100868.65;;;16.55;58.39
55460;BME280;41326;45.302;-122.946;2023-03-14T09:00:26;100869.55;;;16.55;58.38
55460;BME280;41326;45.302;-122.946;2023-03-14T09:02:56;100869.27;;;16.50;58.72
55460;BME280;41326;45.302;-122.946;2023-03-14T09:05:27;100872.99;;;16.49;58.73
55460;BME280;41326;45.302;-122.946;2023-03-14T09:07:57;100877.70;;;16.52;58.62
55460;BME280;41326;45.302;-122.946;2023-03-14T09:10:29;100875.46;;;16.47;58.82
55460;BME280;41326;45.302;-122.946;2023-03-14T09:12:58;100878.81;;;16.45;58.92
55460;BME280;41326;45.302;-122.946;2023-03-14T09:15:28;100876.42;;;16.42;58.96
55460;BME280;41326;45.302;-122.946;2023-03-14T09:17:59;100874.07;;;16.37;58.89
55460;BME280;41326;45.302;-122.946;2023-03-14T09:20:29;100878.98;;;16.32;59.01
55460;BME280;41326;45.302;-122.946;2023-03-14T09:22:59;100880.59;;;16.33;59.05
55460;BME280;41326;45.302;-122.946;2023-03-14T09:25:30;100881.68;;;16.32;59.11
55460;BME280;41326;45.302;-122.946;2023-03-14T09:28:01;100881.46;;;16.32;58.99
55460;BME280;41326;45.302;-122.946;2023-03-14T09:30:31;100878.07;;;16.38;58.70
55460;BME280;41326;45.302;-122.946;2023-03-14T09:33:01;100874.54;;;16.34;58.81
55460;BME280;41326;45.302;-122.946;2023-03-14T09:35:33;100872.98;;;16.34;58.87
55460;BME280;41326;45.302;-122.946;2023-03-14T09:38:01;100873.03;;;16.34;58.78
55460;BME280;41326;45.302;-122.946;2023-03-14T09:40:37;100873.55;;;16.37;58.64
55460;BME280;41326;45.302;-122.946;2023-03-14T09:43:03;100875.67;;;16.34;58.77
55460;BME280;41326;45.302;-122.946;2023-03-14T09:45:35;100881.28;;;16.33;58.73
55460;BME280;41326;45.302;-122.946;2023-03-14T09:48:04;100885.89;;;16.32;58.80
55460;BME280;41326;45.302;-122.946;2023-03-14T09:50:39;100886.03;;;16.29;58.83
55460;BME280;41326;45.302;-122.946;2023-03-14T09:53:09;100883.82;;;16.29;58.77
55460;BME280;41326;45.302;-122.946;2023-03-14T09:55:34;100879.52;;;16.25;58.90
55460;BME280;41326;45.302;-122.946;2023-03-14T09:58:09;100879.17;;;16.24;58.86
55460;BME280;41326;45.302;-122.946;2023-03-14T10:00:36;100875.23;;;16.23;58.88
55460;BME280;41326;45.302;-122.946;2023-03-14T10:05:36;100873.59;;;16.22;58.95
55460;BME280;41326;45.302;-122.946;2023-03-14T10:08:09;100871.54;;;16.19;59.03
55460;BME280;41326;45.302;-122.946;2023-03-14T10:10:38;100868.25;;;16.21;58.96
55460;BME280;41326;45.302;-122.946;2023-03-14T10:13:14;100861.63;;;16.21;59.06
55460;BME280;41326;45.302;-122.946;2023-03-14T10:15:39;100853.28;;;16.16;59.26
55460;BME280;41326;45.302;-122.946;2023-03-14T10:18:10;100852.23;;;16.12;59.30
55460;BME280;41326;45.302;-122.946;2023-03-14T10:20:40;100848.25;;;16.03;59.41
55460;BME280;41326;45.302;-122.946;2023-03-14T10:25:40;100841.99;;;15.96;59.57
55460;BME280;41326;45.302;-122.946;2023-03-14T10:28:11;100838.00;;;15.89;59.74
55460;BME280;41326;45.302;-122.946;2023-03-14T10:30:44;100831.09;;;15.87;59.88
55460;BME280;41326;45.302;-122.946;2023-03-14T10:33:19;100831.48;;;15.89;59.81
55460;BME280;41326;45.302;-122.946;2023-03-14T10:35:41;100826.40;;;15.87;59.92
55460;BME280;41326;45.302;-122.946;2023-03-14T10:38:12;100820.53;;;15.85;59.78
55460;BME280;41326;45.302;-122.946;2023-03-14T10:40:46;100817.48;;;15.83;59.69
55460;BME280;41326;45.302;-122.946;2023-03-14T10:43:13;100818.59;;;15.81;59.81
55460;BME280;41326;45.302;-122.946;2023-03-14T10:45:42;100820.05;;;15.78;59.92
55460;BME280;41326;45.302;-122.946;2023-03-14T10:48:19;100820.75;;;15.80;59.78
55460;BME280;41326;45.302;-122.946;2023-03-14T10:53:16;100812.52;;;15.79;59.80
55460;BME280;41326;45.302;-122.946;2023-03-14T10:55:46;100809.20;;;15.76;59.90
55460;BME280;41326;45.302;-122.946;2023-03-14T10:58:20;100808.32;;;15.76;59.80
55460;BME280;41326;45.302;-122.946;2023-03-14T11:00:43;100812.04;;;15.73;59.85
55460;BME280;41326;45.302;-122.946;2023-03-14T11:03:16;100811.77;;;15.74;59.89
55460;BME280;41326;45.302;-122.946;2023-03-14T11:05:51;100813.96;;;15.71;59.96
55460;BME280;41326;45.302;-122.946;2023-03-14T11:08:18;100816.23;;;15.68;60.01
55460;BME280;41326;45.302;-122.946;2023-03-14T11:10:45;100816.47;;;15.64;60.09
55460;BME280;41326;45.302;-122.946;2023-03-14T11:13:22;100816.32;;;15.67;59.95
55460;BME280;41326;45.302;-122.946;2023-03-14T11:15:50;100816.55;;;15.63;60.00
55460;BME280;41326;45.302;-122.946;2023-03-14T11:20:52;100805.21;;;15.61;59.94
55460;BME280;41326;45.302;-122.946;2023-03-14T11:23:20;100798.80;;;15.61;59.95
55460;BME280;41326;45.302;-122.946;2023-03-14T11:25:52;100797.49;;;15.58;60.08
55460;BME280;41326;45.302;-122.946;2023-03-14T11:28:24;100794.46;;;15.58;60.04
55460;BME280;41326;45.302;-122.946;2023-03-14T11:30:53;100795.26;;;15.56;60.07
55460;BME280;41326;45.302;-122.946;2023-03-14T11:33:22;100789.16;;;15.57;60.00
55460;BME280;41326;45.302;-122.946;2023-03-14T11:35:53;100786.48;;;15.58;59.86
55460;BME280;41326;45.302;-122.946;2023-03-14T11:38:26;100790.73;;;15.58;59.83
55460;BME280;41326;45.302;-122.946;2023-03-14T11:40:50;100787.76;;;15.53;59.94
55460;BME280;41326;45.302;-122.946;2023-03-14T11:43:24;100786.83;;;15.52;60.07
55460;BME280;41326;45.302;-122.946;2023-03-14T11:45:50;100780.58;;;15.54;60.00
55460;BME280;41326;45.302;-122.946;2023-03-14T11:48:27;100775.40;;;15.52;60.06
55460;BME280;41326;45.302;-122.946;2023-03-14T11:50:52;100772.73;;;15.50;60.04
55460;BME280;41326;45.302;-122.946;2023-03-14T11:53:25;100768.23;;;15.48;60.08
55460;BME280;41326;45.302;-122.946;2023-03-14T11:55:52;100765.15;;;15.49;59.90
55460;BME280;41326;45.302;-122.946;2023-03-14T11:58:24;100760.59;;;15.46;59.89
55460;BME280;41326;45.302;-122.946;2023-03-14T12:00:53;100755.38;;;15.48;59.77
55460;BME280;41326;45.302;-122.946;2023-03-14T12:03:29;100750.04;;;15.49;59.73
55460;BME280;41326;45.302;-122.946;2023-03-14T12:05:59;100746.89;;;15.45;59.79
55460;BME280;41326;45.302;-122.946;2023-03-14T12:08:37;100747.97;;;15.44;59.78
55460;BME280;41326;45.302;-122.946;2023-03-14T12:10:55;100743.27;;;15.42;59.76
55460;BME280;41326;45.302;-122.946;2023-03-14T12:13:24;100740.66;;;15.40;59.86
55460;BME280;41326;45.302;-122.946;2023-03-14T12:15:55;100745.76;;;15.38;59.95
55460;BME280;41326;45.302;-122.946;2023-03-14T12:18:26;100742.38;;;15.36;59.88
55460;BME280;41326;45.302;-122.946;2023-03-14T12:21:00;100737.19;;;15.36;59.80
55460;BME280;41326;45.302;-122.946;2023-03-14T12:23:24;100732.88;;;15.34;59.86
55460;BME280;41326;45.302;-122.946;2023-03-14T12:28:30;100734.61;;;15.29;60.04
55460;BME280;41326;45.302;-122.946;2023-03-14T12:30:55;100734.09;;;15.29;60.03
55460;BME280;41326;45.302;-122.946;2023-03-14T12:33:32;100733.37;;;15.29;59.94
55460;BME280;41326;45.302;-122.946;2023-03-14T12:35:58;100726.22;;;15.26;60.01
55460;BME280;41326;45.302;-122.946;2023-03-14T12:41:04;100726.62;;;15.26;59.88
55460;BME280;41326;45.302;-122.946;2023-03-14T12:43:32;100727.82;;;15.25;60.05
55460;BME280;41326;45.302;-122.946;2023-03-14T12:46:07;100728.33;;;15.25;59.97
55460;BME280;41326;45.302;-122.946;2023-03-14T12:48:29;100725.49;;;15.22;60.09
55460;BME280;41326;45.302;-122.946;2023-03-14T12:51:01;100722.94;;;15.20;60.13
55460;BME280;41326;45.302;-122.946;2023-03-14T12:56:06;100728.58;;;15.23;59.57